YAYE/AYQ METAR and TAF weather

Enter ICAO airport designator
Station Type Date Time Source
YAYE METAR 2020/01/17 14:00 UTC NOAA

YAYE 171400Z AUTO 14007KT 9999 // NCD 32/08 Q1008


Station Type Date Time Source
YAYE Decoded METAR 2020/01/17 14:00 UTC NOAA

Ayers Rock, Australia (YAYE) 25-11S 130-58E
Jan 17, 2020 - 09:00 AM EST / 2020.01.17 1400 UTC
Wind: from the SE (140 degrees) at 8 MPH (7 KT):0
Visibility: greater than 7 mile(s):0
Temperature: 89 F (32 C)
Dew Point: 46 F (8 C)
Relative Humidity: 22%
Pressure (altimeter): 29.77 in. Hg (1008 hPa)
ob: YAYE 171400Z AUTO 14007KT 9999 // NCD 32/08 Q1008
cycle: 14

Station Type Date Time Source
YAYE TAF UTC NOAA

Error!

Example: see airport list